createdAt,value
2024-01-26T00:00:09.754Z,2.20
2024-01-26T00:05:37.287Z,2.50
2024-01-26T00:10:39.498Z,2.50
2024-01-26T00:15:41.628Z,2.50
2024-01-26T00:20:43.827Z,2.30
2024-01-26T00:25:46.114Z,2.50
2024-01-26T00:30:48.670Z,2.80
2024-01-26T00:36:04.384Z,2.40
2024-01-26T00:41:06.959Z,2.40
2024-01-26T00:46:12.036Z,2.30
2024-01-26T00:51:17.993Z,1.90
2024-01-26T00:56:20.200Z,1.90
2024-01-26T01:01:24.514Z,2.00
2024-01-26T01:06:27.244Z,1.90
2024-01-26T01:11:41.305Z,2.40
2024-01-26T01:16:43.509Z,2.50
2024-01-26T01:21:48.381Z,2.10
2024-01-26T01:26:50.400Z,1.90
2024-01-26T01:31:52.888Z,2.30
2024-01-26T01:37:15.424Z,2.70
2024-01-26T01:42:17.404Z,2.60
2024-01-26T01:47:27.208Z,2.40
2024-01-26T01:52:30.059Z,2.40
2024-01-26T01:57:33.144Z,2.60
2024-01-26T02:02:36.439Z,3.20
2024-01-26T02:08:19.431Z,2.60
2024-01-26T02:13:21.572Z,2.70
2024-01-26T02:18:26.766Z,2.30
2024-01-26T02:23:48.763Z,2.80
2024-01-26T02:28:53.508Z,3.20
2024-01-26T02:33:55.687Z,4.20
2024-01-26T02:39:00.915Z,3.10
2024-01-26T02:44:03.529Z,2.70
2024-01-26T02:49:06.678Z,2.70
2024-01-26T02:54:09.014Z,2.90
2024-01-26T02:59:11.401Z,2.80
2024-01-26T03:04:16.189Z,3.10
2024-01-26T03:09:18.650Z,3.00
2024-01-26T03:14:23.979Z,2.80
2024-01-26T03:19:46.407Z,2.60
2024-01-26T03:30:02.187Z,2.50
2024-01-26T03:35:05.867Z,2.30
2024-01-26T03:40:08.640Z,2.30
2024-01-26T03:45:21.233Z,2.40
2024-01-26T03:50:26.398Z,2.50
2024-01-26T03:55:28.884Z,2.70
2024-01-26T04:00:44.072Z,2.60
2024-01-26T04:06:08.897Z,2.70
2024-01-26T04:11:13.334Z,2.70
2024-01-26T04:16:15.684Z,2.40
2024-01-26T04:21:27.859Z,2.50
2024-01-26T04:26:30.211Z,2.20
2024-01-26T04:31:32.502Z,2.40
2024-01-26T04:36:34.754Z,2.30
2024-01-26T04:41:47.988Z,2.10
2024-01-26T04:47:24.213Z,2.70
2024-01-26T04:52:50.142Z,3.10
2024-01-26T04:57:52.322Z,2.70
2024-01-26T05:02:54.639Z,2.80
2024-01-26T05:08:19.644Z,2.90
2024-01-26T05:13:42.153Z,3.30
2024-01-26T05:18:44.753Z,3.40
2024-01-26T05:23:49.548Z,3.20
2024-01-26T05:29:23.991Z,3.70
2024-01-26T05:34:35.261Z,3.90
2024-01-26T05:40:08.140Z,3.30
2024-01-26T05:45:14.010Z,3.30
2024-01-26T05:50:48.010Z,4.00
2024-01-26T05:55:53.165Z,3.50
2024-01-26T06:00:55.346Z,2.80
2024-01-26T06:06:05.275Z,3.50
2024-01-26T06:11:08.441Z,3.60
2024-01-26T06:16:14.730Z,3.40
2024-01-26T06:21:16.762Z,3.50
2024-01-26T06:26:20.800Z,3.40
2024-01-26T06:31:33.064Z,2.80
2024-01-26T06:36:45.796Z,3.00
2024-01-26T06:42:26.016Z,2.80
2024-01-26T06:47:28.341Z,2.80
2024-01-26T06:52:33.671Z,3.00
2024-01-26T06:57:39.242Z,3.30
2024-01-26T07:02:47.235Z,3.00
2024-01-26T07:07:59.458Z,3.00
2024-01-26T07:13:05.250Z,2.80
2024-01-26T07:18:30.399Z,2.70
2024-01-26T07:23:32.752Z,3.00
2024-01-26T07:28:44.959Z,3.10
2024-01-26T07:34:09.474Z,3.30
2024-01-26T07:39:11.987Z,3.30
2024-01-26T07:44:19.681Z,3.60
2024-01-26T07:49:21.964Z,4.90
2024-01-26T07:54:24.208Z,6.70
2024-01-26T07:59:28.899Z,6.70
2024-01-26T08:04:31.668Z,6.10
2024-01-26T08:10:06.770Z,4.70
2024-01-26T08:15:50.969Z,5.20
2024-01-26T08:20:53.373Z,6.00
2024-01-26T08:26:10.892Z,5.60
2024-01-26T08:31:23.538Z,5.80
2024-01-26T08:36:40.227Z,6.50
2024-01-26T08:41:56.212Z,5.90
2024-01-26T08:47:14.505Z,4.70
2024-01-26T08:53:29.885Z,4.70
2024-01-26T08:59:10.537Z,3.50
2024-01-26T09:04:23.965Z,3.50
2024-01-26T09:09:29.225Z,3.20
2024-01-26T09:14:31.476Z,3.10
2024-01-26T09:19:59.894Z,3.20
2024-01-26T09:25:14.197Z,3.40
2024-01-26T09:30:26.624Z,3.50
2024-01-26T09:35:28.849Z,3.40
2024-01-26T09:40:31.227Z,3.40
2024-01-26T09:45:38.348Z,3.40
2024-01-26T09:50:42.442Z,4.20
2024-01-26T09:56:06.861Z,3.90
2024-01-26T10:01:44.676Z,4.00
2024-01-26T10:07:00.667Z,4.10
2024-01-26T10:12:05.990Z,3.60
2024-01-26T10:17:08.138Z,3.80
2024-01-26T10:22:10.364Z,3.10
2024-01-26T10:27:12.922Z,2.80
2024-01-26T10:37:59.017Z,3.10
2024-01-26T10:43:02.114Z,3.60
2024-01-26T10:48:13.537Z,3.40
2024-01-26T10:53:17.726Z,3.40
2024-01-26T10:58:34.363Z,3.00
2024-01-26T11:04:07.154Z,3.30
2024-01-26T11:09:22.796Z,3.30
2024-01-26T11:14:40.949Z,4.70
2024-01-26T11:20:20.566Z,3.10
2024-01-26T11:25:22.983Z,2.90
2024-01-26T11:31:12.441Z,3.50
2024-01-26T11:36:39.872Z,3.20
2024-01-26T11:41:45.680Z,3.80
2024-01-26T11:46:47.923Z,3.80
2024-01-26T11:51:50.292Z,4.50
2024-01-26T11:57:03.649Z,4.90
2024-01-26T12:02:16.668Z,5.20
2024-01-26T12:07:33.305Z,5.30
2024-01-26T12:13:07.567Z,4.90
2024-01-26T12:18:31.564Z,4.60
2024-01-26T12:23:34.896Z,5.40
2024-01-26T12:28:51.743Z,5.30
2024-01-26T12:34:10.797Z,5.40
2024-01-26T12:39:13.437Z,5.00
2024-01-26T12:44:15.597Z,4.10
2024-01-26T12:54:52.731Z,4.60
2024-01-26T12:59:55.102Z,5.80
2024-01-26T13:05:01.475Z,4.70
2024-01-26T13:10:08.458Z,5.00
2024-01-26T13:15:11.356Z,5.40
2024-01-26T13:20:20.292Z,5.50
2024-01-26T13:25:31.185Z,5.50
2024-01-26T13:30:53.623Z,5.70
2024-01-26T13:36:07.693Z,5.90
2024-01-26T13:42:03.392Z,5.60
2024-01-26T13:47:05.923Z,6.10
2024-01-26T13:52:08.009Z,6.90
2024-01-26T13:57:15.042Z,6.90
2024-01-26T14:02:17.256Z,7.60
2024-01-26T14:07:38.974Z,7.60
2024-01-26T14:13:10.977Z,7.90
2024-01-26T14:18:29.233Z,8.00
2024-01-26T14:24:08.705Z,7.80
2024-01-26T14:29:18.654Z,8.00
2024-01-26T14:34:20.846Z,12.20
2024-01-26T14:39:23.720Z,9.50
2024-01-26T14:44:51.324Z,8.50
2024-01-26T14:50:57.648Z,8.80
2024-01-26T14:55:59.827Z,7.70
2024-01-26T15:01:01.923Z,7.90
2024-01-26T15:06:25.325Z,7.60
2024-01-26T15:11:27.576Z,8.70
2024-01-26T15:16:33.787Z,10.00
2024-01-26T15:21:41.865Z,15.40
2024-01-26T15:26:47.891Z,19.70
2024-01-26T15:32:13.210Z,23.80
2024-01-26T15:37:18.960Z,15.80
2024-01-26T15:42:21.376Z,16.40
2024-01-26T15:47:23.670Z,15.30
2024-01-26T15:52:30.770Z,12.30
2024-01-26T15:57:47.097Z,12.20
2024-01-26T16:02:52.582Z,11.00
2024-01-26T16:08:02.944Z,10.90
2024-01-26T16:13:05.426Z,12.10
2024-01-26T16:18:17.776Z,12.30
2024-01-26T16:23:19.998Z,13.60
2024-01-26T16:28:47.905Z,13.90
2024-01-26T16:33:50.283Z,13.40
2024-01-26T16:38:55.987Z,13.40
2024-01-26T16:44:18.964Z,13.00
2024-01-26T16:49:45.803Z,13.60
2024-01-26T16:55:12.402Z,13.60
2024-01-26T17:01:05.231Z,14.30
2024-01-26T17:06:27.781Z,15.20
2024-01-26T17:11:33.016Z,18.40
2024-01-26T17:17:10.612Z,18.50
2024-01-26T17:22:36.202Z,18.80
2024-01-26T17:27:38.724Z,18.30
2024-01-26T17:32:41.304Z,16.80
2024-01-26T17:38:00.587Z,15.90
2024-01-26T17:43:08.504Z,14.70
2024-01-26T17:48:13.790Z,14.40
2024-01-26T17:53:26.207Z,14.20
2024-01-26T17:58:30.317Z,13.70
2024-01-26T18:03:32.765Z,13.50
2024-01-26T18:08:35.411Z,14.40
2024-01-26T18:13:47.790Z,14.00
2024-01-26T18:18:52.276Z,14.90
2024-01-26T18:23:55.923Z,20.80
2024-01-26T18:28:58.102Z,18.30
2024-01-26T18:34:01.497Z,18.10
2024-01-26T18:39:04.770Z,18.00
2024-01-26T18:44:09.183Z,16.60
2024-01-26T18:49:27.404Z,15.70
2024-01-26T18:54:39.095Z,16.00
2024-01-26T18:59:46.384Z,15.50
2024-01-26T19:05:09.686Z,14.80
2024-01-26T19:10:42.497Z,13.80
2024-01-26T19:15:46.407Z,14.50
2024-01-26T19:20:51.949Z,13.80
2024-01-26T19:26:06.530Z,15.30
2024-01-26T19:31:11.863Z,13.30
2024-01-26T19:36:18.631Z,13.70
2024-01-26T19:41:23.289Z,13.80
2024-01-26T19:46:34.877Z,15.20
2024-01-26T19:51:50.823Z,14.20
2024-01-26T19:56:55.977Z,16.90
2024-01-26T20:02:18.746Z,16.20
2024-01-26T20:07:43.636Z,17.10
2024-01-26T20:13:08.976Z,18.80
2024-01-26T20:18:16.184Z,18.50
2024-01-26T20:24:18.224Z,18.70
2024-01-26T20:29:28.270Z,20.10
2024-01-26T20:34:52.188Z,20.50
2024-01-26T20:40:18.085Z,20.70
2024-01-26T20:45:20.562Z,20.20
2024-01-26T20:50:28.998Z,22.40
2024-01-26T20:55:33.220Z,21.60
2024-01-26T21:00:38.364Z,22.60
2024-01-26T21:05:43.446Z,23.00
2024-01-26T21:10:48.765Z,23.30
2024-01-26T21:16:01.797Z,23.20
2024-01-26T21:21:15.293Z,23.80
2024-01-26T21:26:27.997Z,22.70
2024-01-26T21:31:50.733Z,24.80
2024-01-26T21:37:42.847Z,25.40
2024-01-26T21:43:22.215Z,24.70
2024-01-26T21:49:03.476Z,25.90
2024-01-26T21:54:22.890Z,23.20
2024-01-26T22:00:00.810Z,25.20
2024-01-26T22:05:03.183Z,25.60
2024-01-26T22:10:08.502Z,32.00
2024-01-26T22:15:31.052Z,35.90
2024-01-26T22:20:54.106Z,31.80
2024-01-26T22:26:17.475Z,27.20
2024-01-26T22:31:32.274Z,28.10
2024-01-26T22:36:37.358Z,24.10
2024-01-26T22:41:52.872Z,22.80
2024-01-26T22:46:58.414Z,21.00
2024-01-26T22:52:00.691Z,18.30
2024-01-26T22:57:13.997Z,19.50
2024-01-26T23:02:53.449Z,19.40
2024-01-26T23:08:16.267Z,19.90
2024-01-26T23:13:18.170Z,22.10
2024-01-26T23:18:20.429Z,21.90
2024-01-26T23:23:22.720Z,21.50
2024-01-26T23:28:27.874Z,16.80
2024-01-26T23:33:33.187Z,13.00
2024-01-26T23:38:38.450Z,9.80
2024-01-26T23:43:40.597Z,8.80
2024-01-26T23:49:09.330Z,6.70
2024-01-26T23:54:16.062Z,6.00
2024-01-26T23:59:25.913Z,4.40
